WAT3284 KDFW-KTPA
Flight info
| Callsign | WAT3284 |
|---|---|
| Flight time | 2h 0m |
| Altitude | 37000 |
| Route | MRSSH3 ZALEA HRV Q105 REDFN Y280 CHRGE RAYZZ3 |
| Aircraft | B738/M-SDE2E3FGHIRWXY/LB1 |
Departure
| Time | 2026-05-04 10:47 |
|---|---|
| Airport | Dallas Fort Worth International Airport (KDFW) |
Arrival
| Time | 2026-05-04 12:48 |
|---|---|
| Airport | Tampa International Airport (KTPA) |
| Time | Latitude | Longitude | Altitude | Speed | Heading |
|---|---|---|---|---|---|
| 2026-05-04 10:20 | 32.90492 | -97.04592 | 597 ft | 0 kts | 103° |
| 2026-05-04 10:35 | 32.90494 | -97.04604 | 597 ft | 3 kts | 94° |
| 2026-05-04 10:35 | 32.90492 | -97.04624 | 597 ft | 3 kts | 49° |
| 2026-05-04 10:35 | 32.90478 | -97.04636 | 597 ft | 3 kts | 8° |
| 2026-05-04 10:36 | 32.90468 | -97.04637 | 597 ft | 1 kts | 1° |
| 2026-05-04 10:36 | 32.90466 | -97.04637 | 597 ft | 0 kts | 1° |
| 2026-05-04 10:41 | 32.90467 | -97.04637 | 597 ft | 1 kts | 1° |
| 2026-05-04 10:41 | 32.90488 | -97.04636 | 597 ft | 6 kts | 1° |
| 2026-05-04 10:41 | 32.90538 | -97.04661 | 597 ft | 10 kts | 291° |
| 2026-05-04 10:42 | 32.90558 | -97.04748 | 597 ft | 12 kts | 321° |
| 2026-05-04 10:42 | 32.90649 | -97.04762 | 597 ft | 15 kts | 0° |
| 2026-05-04 10:42 | 32.90759 | -97.04760 | 597 ft | 17 kts | 0° |
| 2026-05-04 10:42 | 32.90888 | -97.04759 | 597 ft | 20 kts | 0° |
| 2026-05-04 10:43 | 32.90984 | -97.04766 | 597 ft | 15 kts | 344° |
| 2026-05-04 10:44 | 32.91566 | -97.04965 | 597 ft | 0 kts | 272° |
| 2026-05-04 10:45 | 32.91567 | -97.04988 | 597 ft | 7 kts | 271° |
| 2026-05-04 10:45 | 32.91552 | -97.05061 | 597 ft | 9 kts | 219° |
| 2026-05-04 10:46 | 32.91498 | -97.05074 | 597 ft | 0 kts | 180° |
| 2026-05-04 10:46 | 32.91385 | -97.05075 | 597 ft | 47 kts | 180° |
| 2026-05-04 10:47 | 32.90771 | -97.05079 | 597 ft | 127 kts | 180° |
| 2026-05-04 10:47 | 32.89653 | -97.05077 | 677 ft | 188 kts | 181° |
| 2026-05-04 10:47 | 32.88268 | -97.05028 | 1248 ft | 213 kts | 179° |
| 2026-05-04 10:47 | 32.86695 | -97.04945 | 1781 ft | 239 kts | 181° |
| 2026-05-04 10:49 | 32.74912 | -97.03701 | 5235 ft | 262 kts | 172° |
| 2026-05-04 10:49 | 32.73195 | -97.02848 | 5726 ft | 274 kts | 152° |
| 2026-05-04 10:50 | 32.71671 | -97.01433 | 6240 ft | 282 kts | 141° |
| 2026-05-04 10:51 | 32.68876 | -96.85298 | 9671 ft | 312 kts | 87° |
| 2026-05-04 10:52 | 32.68950 | -96.82714 | 10009 ft | 312 kts | 88° |
| 2026-05-04 10:52 | 32.69013 | -96.80117 | 10018 ft | 323 kts | 88° |
| 2026-05-04 10:52 | 32.69069 | -96.77332 | 10049 ft | 353 kts | 89° |
| 2026-05-04 10:54 | 32.69392 | -96.55945 | 14781 ft | 385 kts | 88° |
| 2026-05-04 10:54 | 32.69435 | -96.52750 | 15422 ft | 388 kts | 88° |
| 2026-05-04 10:56 | 32.69547 | -96.29457 | 19534 ft | 418 kts | 93° |
| 2026-05-04 10:56 | 32.69313 | -96.26004 | 20058 ft | 422 kts | 94° |
| 2026-05-04 10:56 | 32.69043 | -96.22523 | 20586 ft | 426 kts | 94° |
| 2026-05-04 10:57 | 32.68776 | -96.19052 | 21089 ft | 429 kts | 94° |
| 2026-05-04 10:57 | 32.68511 | -96.15459 | 21610 ft | 433 kts | 94° |
| 2026-05-04 10:57 | 32.68262 | -96.11932 | 22100 ft | 437 kts | 94° |
| 2026-05-04 10:57 | 32.68016 | -96.08324 | 22607 ft | 441 kts | 94° |
| 2026-05-04 10:58 | 32.67770 | -96.04680 | 23096 ft | 444 kts | 94° |
| 2026-05-04 10:58 | 32.67523 | -96.01010 | 23564 ft | 448 kts | 94° |
| 2026-05-04 10:58 | 32.67281 | -95.97431 | 23945 ft | 452 kts | 94° |
| 2026-05-04 10:58 | 32.67027 | -95.93696 | 24349 ft | 455 kts | 94° |
| 2026-05-04 10:59 | 32.66770 | -95.89942 | 24746 ft | 458 kts | 94° |
| 2026-05-04 10:59 | 32.66510 | -95.86158 | 25136 ft | 462 kts | 94° |
| 2026-05-04 10:59 | 32.66247 | -95.82349 | 25521 ft | 465 kts | 94° |
| 2026-05-04 10:59 | 32.65980 | -95.78516 | 25899 ft | 468 kts | 94° |
| 2026-05-04 11:00 | 32.65710 | -95.74652 | 26266 ft | 471 kts | 94° |
| 2026-05-04 11:01 | 32.63737 | -95.46894 | 28708 ft | 493 kts | 94° |
| 2026-05-04 11:02 | 32.63442 | -95.42826 | 29030 ft | 496 kts | 93° |
| 2026-05-04 11:02 | 32.63149 | -95.38788 | 29341 ft | 499 kts | 93° |
| 2026-05-04 11:05 | 32.58817 | -94.81134 | 33167 ft | 522 kts | 93° |
| 2026-05-04 11:06 | 32.58418 | -94.76801 | 33477 ft | 523 kts | 99° |
| 2026-05-04 11:06 | 32.57520 | -94.72680 | 33752 ft | 524 kts | 107° |
| 2026-05-04 11:06 | 32.56361 | -94.68590 | 34061 ft | 523 kts | 110° |
| 2026-05-04 11:06 | 32.55127 | -94.64539 | 34301 ft | 523 kts | 110° |
| 2026-05-04 11:08 | 32.46787 | -94.35914 | 35822 ft | 526 kts | 108° |
| 2026-05-04 11:10 | 32.38589 | -94.07199 | 37053 ft | 530 kts | 108° |
| 2026-05-04 11:12 | 32.29189 | -93.74655 | 37054 ft | 520 kts | 108° |
| 2026-05-04 11:12 | 32.26845 | -93.66591 | 37068 ft | 518 kts | 108° |
| 2026-05-04 11:13 | 32.24504 | -93.58558 | 37073 ft | 517 kts | 108° |
| 2026-05-04 11:13 | 32.22157 | -93.50528 | 37070 ft | 517 kts | 108° |
| 2026-05-04 11:14 | 32.20777 | -93.46612 | 37042 ft | 517 kts | 122° |
| 2026-05-04 11:14 | 32.18702 | -93.43184 | 37122 ft | 512 kts | 130° |
| 2026-05-04 11:16 | 32.00951 | -93.16469 | 37070 ft | 522 kts | 130° |
| 2026-05-04 11:16 | 31.96508 | -93.09684 | 37082 ft | 524 kts | 130° |
| 2026-05-04 11:17 | 31.92050 | -93.02897 | 37109 ft | 525 kts | 130° |
| 2026-05-04 11:19 | 31.74254 | -92.75943 | 37077 ft | 520 kts | 130° |
| 2026-05-04 11:19 | 31.69815 | -92.69248 | 37084 ft | 519 kts | 130° |
| 2026-05-04 11:20 | 31.65385 | -92.62580 | 37101 ft | 517 kts | 130° |
| 2026-05-04 11:20 | 31.60961 | -92.55933 | 37095 ft | 516 kts | 130° |
| 2026-05-04 11:22 | 31.43288 | -92.29492 | 37088 ft | 515 kts | 131° |
| 2026-05-04 11:23 | 31.38856 | -92.22890 | 37100 ft | 516 kts | 131° |
| 2026-05-04 11:25 | 31.23305 | -91.99811 | 37109 ft | 520 kts | 131° |
| 2026-05-04 11:25 | 31.18831 | -91.93195 | 37116 ft | 520 kts | 131° |
| 2026-05-04 11:27 | 30.98611 | -91.63441 | 37112 ft | 520 kts | 131° |
| 2026-05-04 11:28 | 30.94109 | -91.56846 | 37080 ft | 520 kts | 131° |
| 2026-05-04 11:28 | 30.89612 | -91.50270 | 37109 ft | 519 kts | 131° |
| 2026-05-04 11:29 | 30.85118 | -91.43710 | 37103 ft | 518 kts | 131° |
| 2026-05-04 11:29 | 30.80621 | -91.37156 | 37105 ft | 518 kts | 131° |
| 2026-05-04 11:33 | 30.49240 | -90.91724 | 37118 ft | 516 kts | 132° |
| 2026-05-04 11:33 | 30.44736 | -90.85247 | 37120 ft | 516 kts | 132° |
| 2026-05-04 11:34 | 30.40228 | -90.78772 | 37120 ft | 516 kts | 132° |
| 2026-05-04 11:34 | 30.35711 | -90.72297 | 37121 ft | 516 kts | 132° |
| 2026-05-04 11:35 | 30.31196 | -90.65834 | 37126 ft | 517 kts | 132° |
| 2026-05-04 11:35 | 30.26672 | -90.59370 | 37126 ft | 517 kts | 132° |
| 2026-05-04 11:36 | 30.22141 | -90.52907 | 37123 ft | 517 kts | 132° |
| 2026-05-04 11:36 | 30.17608 | -90.46449 | 37121 ft | 518 kts | 132° |
| 2026-05-04 11:37 | 30.13097 | -90.40035 | 37124 ft | 518 kts | 132° |
| 2026-05-04 11:37 | 30.08554 | -90.33584 | 37116 ft | 517 kts | 132° |
| 2026-05-04 11:38 | 30.04009 | -90.27141 | 37119 ft | 518 kts | 132° |
| 2026-05-04 11:38 | 29.99467 | -90.20712 | 37120 ft | 518 kts | 132° |
| 2026-05-04 11:39 | 29.94914 | -90.14278 | 37120 ft | 517 kts | 132° |
| 2026-05-04 11:41 | 29.78959 | -89.92026 | 37120 ft | 515 kts | 134° |
| 2026-05-04 11:41 | 29.74316 | -89.85735 | 37118 ft | 516 kts | 134° |
| 2026-05-04 11:42 | 29.69688 | -89.79439 | 37119 ft | 515 kts | 134° |
| 2026-05-04 11:42 | 29.65055 | -89.73144 | 37122 ft | 515 kts | 134° |
| 2026-05-04 11:43 | 29.60419 | -89.66857 | 37126 ft | 516 kts | 134° |
| 2026-05-04 11:43 | 29.55779 | -89.60570 | 37123 ft | 516 kts | 134° |
| 2026-05-04 11:44 | 29.51136 | -89.54287 | 37108 ft | 516 kts | 134° |
| 2026-05-04 11:44 | 29.46488 | -89.48008 | 37120 ft | 516 kts | 134° |
| 2026-05-04 11:45 | 29.41832 | -89.41728 | 37129 ft | 517 kts | 134° |
| 2026-05-04 11:45 | 29.37170 | -89.35449 | 37131 ft | 518 kts | 134° |
| 2026-05-04 11:46 | 29.32496 | -89.29165 | 37124 ft | 518 kts | 134° |
| 2026-05-04 11:46 | 29.27812 | -89.22875 | 37124 ft | 519 kts | 134° |
| 2026-05-04 11:47 | 29.23152 | -89.16628 | 37095 ft | 519 kts | 134° |
| 2026-05-04 11:47 | 29.18455 | -89.10341 | 37114 ft | 520 kts | 134° |
| 2026-05-04 11:48 | 29.13755 | -89.04060 | 37121 ft | 520 kts | 134° |
| 2026-05-04 11:48 | 29.09123 | -88.97879 | 37120 ft | 520 kts | 134° |
| 2026-05-04 11:49 | 29.04414 | -88.91604 | 37121 ft | 520 kts | 134° |
| 2026-05-04 11:49 | 28.99709 | -88.85344 | 37130 ft | 520 kts | 134° |
| 2026-05-04 11:50 | 28.94999 | -88.79084 | 37070 ft | 519 kts | 134° |
| 2026-05-04 11:50 | 28.90341 | -88.72800 | 37106 ft | 519 kts | 128° |
| 2026-05-04 11:51 | 28.86872 | -88.65581 | 37105 ft | 520 kts | 108° |
| 2026-05-04 11:51 | 28.84728 | -88.57716 | 37117 ft | 519 kts | 105° |
| 2026-05-04 11:52 | 28.82653 | -88.49838 | 37116 ft | 519 kts | 106° |
| 2026-05-04 11:52 | 28.80506 | -88.41980 | 37118 ft | 519 kts | 106° |
| 2026-05-04 11:53 | 28.78691 | -88.35461 | 37115 ft | 519 kts | 107° |
| 2026-05-04 11:53 | 28.76502 | -88.27624 | 37114 ft | 519 kts | 107° |
| 2026-05-04 11:55 | 28.67737 | -87.96370 | 37117 ft | 521 kts | 107° |
| 2026-05-04 11:56 | 28.65518 | -87.88528 | 37116 ft | 521 kts | 107° |
| 2026-05-04 11:56 | 28.63293 | -87.80679 | 37106 ft | 520 kts | 107° |
| 2026-05-04 11:57 | 28.61069 | -87.72849 | 37103 ft | 520 kts | 107° |
| 2026-05-04 11:57 | 28.58841 | -87.65022 | 37116 ft | 520 kts | 107° |
| 2026-05-04 11:58 | 28.56624 | -87.57257 | 37106 ft | 520 kts | 107° |
| 2026-05-04 11:58 | 28.54388 | -87.49439 | 37108 ft | 519 kts | 107° |
| 2026-05-04 11:59 | 28.52147 | -87.41628 | 37111 ft | 519 kts | 107° |
| 2026-05-04 11:59 | 28.49905 | -87.33830 | 37108 ft | 519 kts | 107° |
| 2026-05-04 12:00 | 28.47658 | -87.26032 | 37116 ft | 519 kts | 108° |
| 2026-05-04 12:00 | 28.45408 | -87.18244 | 37109 ft | 518 kts | 108° |
| 2026-05-04 12:01 | 28.43156 | -87.10466 | 37113 ft | 518 kts | 108° |
| 2026-05-04 12:02 | 28.35281 | -86.83418 | 37103 ft | 517 kts | 108° |
| 2026-05-04 12:03 | 28.33016 | -86.75673 | 37066 ft | 517 kts | 108° |
| 2026-05-04 12:03 | 28.30750 | -86.67944 | 37099 ft | 516 kts | 108° |
| 2026-05-04 12:04 | 28.28490 | -86.60213 | 37102 ft | 516 kts | 108° |
| 2026-05-04 12:04 | 28.26246 | -86.52542 | 37108 ft | 516 kts | 108° |
| 2026-05-04 12:05 | 28.23984 | -86.44824 | 37102 ft | 516 kts | 108° |
| 2026-05-04 12:05 | 28.21715 | -86.37107 | 37104 ft | 516 kts | 109° |
| 2026-05-04 12:06 | 28.19442 | -86.29395 | 37103 ft | 516 kts | 109° |
| 2026-05-04 12:06 | 28.17163 | -86.21682 | 37103 ft | 516 kts | 109° |
| 2026-05-04 12:07 | 28.14880 | -86.13973 | 37108 ft | 516 kts | 109° |
| 2026-05-04 12:07 | 28.12593 | -86.06264 | 37097 ft | 516 kts | 109° |
| 2026-05-04 12:08 | 28.10337 | -85.98681 | 37101 ft | 516 kts | 109° |
| 2026-05-04 12:08 | 28.08041 | -85.90980 | 37101 ft | 516 kts | 109° |
| 2026-05-04 12:09 | 28.05740 | -85.83279 | 37098 ft | 516 kts | 109° |
| 2026-05-04 12:09 | 28.03435 | -85.75584 | 37098 ft | 516 kts | 109° |
| 2026-05-04 12:10 | 28.01125 | -85.67889 | 37098 ft | 516 kts | 109° |
| 2026-05-04 12:10 | 27.98830 | -85.60258 | 37074 ft | 515 kts | 109° |
| 2026-05-04 12:11 | 27.97656 | -85.56364 | 36831 ft | 519 kts | 109° |
| 2026-05-04 12:11 | 27.96503 | -85.52544 | 36343 ft | 520 kts | 109° |
| 2026-05-04 12:11 | 27.95337 | -85.48683 | 35864 ft | 518 kts | 109° |
| 2026-05-04 12:11 | 27.94177 | -85.44846 | 35480 ft | 514 kts | 109° |
| 2026-05-04 12:12 | 27.93021 | -85.41029 | 35105 ft | 511 kts | 109° |
| 2026-05-04 12:12 | 27.91871 | -85.37232 | 34697 ft | 509 kts | 109° |
| 2026-05-04 12:12 | 27.90726 | -85.33456 | 34281 ft | 507 kts | 109° |
| 2026-05-04 12:12 | 27.89584 | -85.29695 | 33846 ft | 505 kts | 109° |
| 2026-05-04 12:13 | 27.88460 | -85.25938 | 33411 ft | 503 kts | 107° |
| 2026-05-04 12:14 | 27.83968 | -84.99442 | 30643 ft | 485 kts | 100° |
| 2026-05-04 12:15 | 27.83332 | -84.95708 | 30279 ft | 483 kts | 100° |
| 2026-05-04 12:15 | 27.82697 | -84.91989 | 29834 ft | 481 kts | 100° |
| 2026-05-04 12:15 | 27.82066 | -84.88289 | 29416 ft | 478 kts | 100° |
| 2026-05-04 12:15 | 27.81442 | -84.84616 | 29007 ft | 474 kts | 99° |
| 2026-05-04 12:16 | 27.81122 | -84.80943 | 28665 ft | 466 kts | 86° |
| 2026-05-04 12:16 | 27.81257 | -84.77323 | 28388 ft | 459 kts | 83° |
| 2026-05-04 12:16 | 27.81480 | -84.73740 | 27986 ft | 456 kts | 82° |
| 2026-05-04 12:16 | 27.81722 | -84.70182 | 27610 ft | 453 kts | 83° |
| 2026-05-04 12:17 | 27.81950 | -84.66643 | 27230 ft | 450 kts | 83° |
| 2026-05-04 12:17 | 27.82155 | -84.63126 | 26848 ft | 448 kts | 83° |
| 2026-05-04 12:17 | 27.82342 | -84.59627 | 26470 ft | 445 kts | 84° |
| 2026-05-04 12:17 | 27.82515 | -84.56145 | 26092 ft | 443 kts | 84° |
| 2026-05-04 12:18 | 27.82680 | -84.52678 | 25713 ft | 441 kts | 84° |
| 2026-05-04 12:18 | 27.82841 | -84.49227 | 25322 ft | 439 kts | 84° |
| 2026-05-04 12:18 | 27.83000 | -84.45792 | 24951 ft | 437 kts | 84° |
| 2026-05-04 12:18 | 27.83158 | -84.42370 | 24556 ft | 436 kts | 85° |
| 2026-05-04 12:19 | 27.83316 | -84.38959 | 24187 ft | 434 kts | 85° |
| 2026-05-04 12:19 | 27.83472 | -84.35561 | 23794 ft | 432 kts | 85° |
| 2026-05-04 12:19 | 27.83627 | -84.32179 | 23378 ft | 431 kts | 85° |
| 2026-05-04 12:19 | 27.83781 | -84.28810 | 22973 ft | 428 kts | 85° |
| 2026-05-04 12:20 | 27.83933 | -84.25463 | 22573 ft | 425 kts | 85° |
| 2026-05-04 12:20 | 27.84083 | -84.22144 | 22196 ft | 421 kts | 85° |
| 2026-05-04 12:20 | 27.84226 | -84.18945 | 21841 ft | 418 kts | 85° |
| 2026-05-04 12:20 | 27.84376 | -84.15588 | 21461 ft | 415 kts | 85° |
| 2026-05-04 12:21 | 27.84520 | -84.12351 | 21079 ft | 407 kts | 85° |
| 2026-05-04 12:21 | 27.84659 | -84.09197 | 20718 ft | 397 kts | 85° |
| 2026-05-04 12:21 | 27.84794 | -84.06120 | 20369 ft | 388 kts | 85° |
| 2026-05-04 12:21 | 27.84925 | -84.03114 | 20026 ft | 379 kts | 85° |
| 2026-05-04 12:22 | 27.85054 | -84.00176 | 19698 ft | 371 kts | 85° |
| 2026-05-04 12:22 | 27.85177 | -83.97354 | 19397 ft | 370 kts | 85° |
| 2026-05-04 12:22 | 27.85303 | -83.94457 | 19075 ft | 369 kts | 86° |
| 2026-05-04 12:22 | 27.85427 | -83.91565 | 18737 ft | 369 kts | 86° |
| 2026-05-04 12:23 | 27.85602 | -83.88708 | 18624 ft | 360 kts | 84° |
| 2026-05-04 12:23 | 27.85831 | -83.85898 | 18311 ft | 359 kts | 83° |
| 2026-05-04 12:23 | 27.86076 | -83.83100 | 17979 ft | 357 kts | 83° |
| 2026-05-04 12:23 | 27.86320 | -83.80310 | 17639 ft | 356 kts | 83° |
| 2026-05-04 12:24 | 27.86559 | -83.77528 | 17241 ft | 356 kts | 83° |
| 2026-05-04 12:24 | 27.86793 | -83.74745 | 16900 ft | 355 kts | 83° |
| 2026-05-04 12:24 | 27.87023 | -83.71972 | 16560 ft | 354 kts | 83° |
| 2026-05-04 12:24 | 27.87249 | -83.69211 | 16227 ft | 352 kts | 83° |
| 2026-05-04 12:25 | 27.87472 | -83.66454 | 15892 ft | 351 kts | 83° |
| 2026-05-04 12:25 | 27.87693 | -83.63714 | 15560 ft | 350 kts | 84° |
| 2026-05-04 12:25 | 27.87913 | -83.60983 | 15235 ft | 348 kts | 84° |
| 2026-05-04 12:25 | 27.88131 | -83.58264 | 14905 ft | 347 kts | 84° |
| 2026-05-04 12:26 | 27.88347 | -83.55557 | 14580 ft | 345 kts | 84° |
| 2026-05-04 12:26 | 27.88562 | -83.52860 | 14255 ft | 344 kts | 84° |
| 2026-05-04 12:26 | 27.88773 | -83.50204 | 13933 ft | 343 kts | 84° |
| 2026-05-04 12:26 | 27.88984 | -83.47542 | 13557 ft | 336 kts | 84° |
| 2026-05-04 12:27 | 27.89189 | -83.44945 | 13202 ft | 327 kts | 84° |
| 2026-05-04 12:27 | 27.89388 | -83.42417 | 12880 ft | 319 kts | 84° |
| 2026-05-04 12:27 | 27.89582 | -83.39957 | 12571 ft | 310 kts | 84° |
| 2026-05-04 12:27 | 27.89770 | -83.37561 | 12273 ft | 302 kts | 84° |
| 2026-05-04 12:28 | 27.89954 | -83.35217 | 11994 ft | 298 kts | 84° |
| 2026-05-04 12:28 | 27.90136 | -83.32890 | 11726 ft | 296 kts | 84° |
| 2026-05-04 12:28 | 27.90319 | -83.30560 | 11449 ft | 301 kts | 84° |
| 2026-05-04 12:28 | 27.90508 | -83.28141 | 11240 ft | 312 kts | 84° |
| 2026-05-04 12:29 | 27.90694 | -83.25746 | 11267 ft | 298 kts | 84° |
| 2026-05-04 12:29 | 27.90869 | -83.23480 | 11142 ft | 284 kts | 84° |
| 2026-05-04 12:29 | 27.91042 | -83.21246 | 10682 ft | 286 kts | 84° |
| 2026-05-04 12:29 | 27.91215 | -83.19007 | 10268 ft | 285 kts | 84° |
| 2026-05-04 12:30 | 27.91449 | -83.16786 | 9818 ft | 284 kts | 73° |
| 2026-05-04 12:30 | 27.92214 | -83.14745 | 9373 ft | 281 kts | 61° |
| 2026-05-04 12:30 | 27.93109 | -83.12787 | 8921 ft | 280 kts | 60° |
| 2026-05-04 12:30 | 27.94009 | -83.10833 | 8463 ft | 280 kts | 61° |
| 2026-05-04 12:31 | 27.94901 | -83.08879 | 8068 ft | 278 kts | 61° |
| 2026-05-04 12:31 | 27.95774 | -83.06951 | 7689 ft | 274 kts | 61° |
| 2026-05-04 12:31 | 27.96636 | -83.05033 | 7332 ft | 272 kts | 61° |
| 2026-05-04 12:31 | 27.97485 | -83.03137 | 6973 ft | 269 kts | 62° |
| 2026-05-04 12:32 | 27.98322 | -83.01260 | 6623 ft | 266 kts | 61° |
| 2026-05-04 12:32 | 27.99947 | -82.97607 | 5885 ft | 261 kts | 61° |
| 2026-05-04 12:32 | 28.00761 | -82.95775 | 5513 ft | 259 kts | 62° |
| 2026-05-04 12:33 | 28.01561 | -82.93972 | 5205 ft | 254 kts | 62° |
| 2026-05-04 12:33 | 28.02344 | -82.92207 | 4905 ft | 248 kts | 62° |
| 2026-05-04 12:33 | 28.03109 | -82.90481 | 4598 ft | 243 kts | 62° |
| 2026-05-04 12:33 | 28.03857 | -82.88791 | 4295 ft | 238 kts | 62° |
| 2026-05-04 12:34 | 28.04593 | -82.87130 | 3991 ft | 233 kts | 62° |
| 2026-05-04 12:34 | 28.05312 | -82.85505 | 3711 ft | 228 kts | 62° |
| 2026-05-04 12:34 | 28.05935 | -82.83884 | 3501 ft | 223 kts | 77° |
| 2026-05-04 12:34 | 28.05862 | -82.82174 | 3392 ft | 216 kts | 99° |
| 2026-05-04 12:35 | 28.05481 | -82.80516 | 3254 ft | 219 kts | 103° |
| 2026-05-04 12:35 | 28.05061 | -82.78855 | 3143 ft | 222 kts | 104° |
| 2026-05-04 12:35 | 28.04630 | -82.77166 | 3023 ft | 224 kts | 104° |
| 2026-05-04 12:35 | 28.04200 | -82.75473 | 2894 ft | 223 kts | 103° |
| 2026-05-04 12:36 | 28.03778 | -82.73800 | 2755 ft | 218 kts | 103° |
| 2026-05-04 12:36 | 28.03369 | -82.72169 | 2637 ft | 213 kts | 103° |
| 2026-05-04 12:36 | 28.02968 | -82.70560 | 2612 ft | 213 kts | 103° |
| 2026-05-04 12:36 | 28.02566 | -82.68946 | 2625 ft | 214 kts | 103° |
| 2026-05-04 12:37 | 28.02162 | -82.67321 | 2601 ft | 215 kts | 103° |
| 2026-05-04 12:37 | 28.01757 | -82.65694 | 2601 ft | 214 kts | 103° |
| 2026-05-04 12:37 | 28.01354 | -82.64078 | 2600 ft | 213 kts | 103° |
| 2026-05-04 12:37 | 28.00775 | -82.62541 | 2582 ft | 216 kts | 127° |
| 2026-05-04 12:38 | 27.99550 | -82.61657 | 2605 ft | 216 kts | 163° |
| 2026-05-04 12:38 | 27.98055 | -82.61524 | 2620 ft | 217 kts | 179° |
| 2026-05-04 12:38 | 27.96542 | -82.61596 | 2611 ft | 219 kts | 180° |
| 2026-05-04 12:38 | 27.95023 | -82.61677 | 2607 ft | 218 kts | 181° |
| 2026-05-04 12:39 | 27.93511 | -82.61751 | 2590 ft | 217 kts | 180° |
| 2026-05-04 12:39 | 27.92018 | -82.61818 | 2596 ft | 213 kts | 179° |
| 2026-05-04 12:39 | 27.90536 | -82.61881 | 2599 ft | 213 kts | 180° |
| 2026-05-04 12:39 | 27.89055 | -82.61943 | 2599 ft | 212 kts | 180° |
| 2026-05-04 12:40 | 27.87583 | -82.62002 | 2599 ft | 210 kts | 179° |
| 2026-05-04 12:40 | 27.86132 | -82.62060 | 2596 ft | 208 kts | 180° |
| 2026-05-04 12:40 | 27.84682 | -82.62117 | 2583 ft | 209 kts | 179° |
| 2026-05-04 12:40 | 27.83718 | -82.62155 | 2589 ft | 209 kts | 180° |
| 2026-05-04 12:41 | 27.82249 | -82.62213 | 2579 ft | 208 kts | 179° |
| 2026-05-04 12:41 | 27.80831 | -82.62269 | 2577 ft | 204 kts | 179° |
| 2026-05-04 12:41 | 27.79426 | -82.62325 | 2562 ft | 201 kts | 179° |
| 2026-05-04 12:41 | 27.78029 | -82.62379 | 2583 ft | 200 kts | 179° |
| 2026-05-04 12:42 | 27.76705 | -82.62078 | 2562 ft | 194 kts | 140° |
| 2026-05-04 12:42 | 27.76011 | -82.60862 | 2592 ft | 187 kts | 96° |
| 2026-05-04 12:42 | 27.76067 | -82.59415 | 2578 ft | 183 kts | 72° |
| 2026-05-04 12:42 | 27.76538 | -82.58113 | 2587 ft | 176 kts | 65° |
| 2026-05-04 12:43 | 27.77026 | -82.56863 | 2586 ft | 173 kts | 64° |
| 2026-05-04 12:43 | 27.77697 | -82.55748 | 2572 ft | 174 kts | 39° |
| 2026-05-04 12:43 | 27.78739 | -82.55067 | 2571 ft | 176 kts | 17° |
| 2026-05-04 12:43 | 27.79957 | -82.54890 | 2595 ft | 178 kts | 8° |
| 2026-05-04 12:44 | 27.81203 | -82.54779 | 2593 ft | 180 kts | 6° |
| 2026-05-04 12:44 | 27.82462 | -82.54713 | 2582 ft | 181 kts | 5° |
| 2026-05-04 12:44 | 27.83717 | -82.54667 | 2435 ft | 179 kts | 5° |
| 2026-05-04 12:44 | 27.84936 | -82.54626 | 2206 ft | 170 kts | 5° |
| 2026-05-04 12:45 | 27.86075 | -82.54588 | 1990 ft | 158 kts | 6° |
| 2026-05-04 12:45 | 27.87139 | -82.54552 | 1808 ft | 148 kts | 7° |
| 2026-05-04 12:45 | 27.88150 | -82.54516 | 1588 ft | 144 kts | 7° |
| 2026-05-04 12:45 | 27.89139 | -82.54482 | 1408 ft | 141 kts | 6° |
| 2026-05-04 12:46 | 27.90115 | -82.54448 | 1229 ft | 142 kts | 7° |
| 2026-05-04 12:46 | 27.91113 | -82.54413 | 1036 ft | 145 kts | 6° |
| 2026-05-04 12:46 | 27.92151 | -82.54377 | 894 ft | 158 kts | 6° |
| 2026-05-04 12:46 | 27.93251 | -82.54347 | 653 ft | 155 kts | 4° |
| 2026-05-04 12:47 | 27.94298 | -82.54315 | 486 ft | 148 kts | 6° |
| 2026-05-04 12:47 | 27.95315 | -82.54274 | 325 ft | 145 kts | 4° |
| 2026-05-04 12:47 | 27.96324 | -82.54244 | 98 ft | 146 kts | 3° |
| 2026-05-04 12:47 | 27.97273 | -82.54201 | 36 ft | 121 kts | 1° |
| 2026-05-04 12:48 | 27.97961 | -82.54180 | 34 ft | 77 kts | 2° |
| 2026-05-04 12:48 | 27.98344 | -82.54167 | 43 ft | 40 kts | 2° |
| 2026-05-04 12:48 | 27.98560 | -82.54159 | 43 ft | 19 kts | 2° |
| 2026-05-04 12:48 | 27.98669 | -82.54135 | 43 ft | 15 kts | 44° |
| 2026-05-04 12:49 | 27.98655 | -82.54044 | 43 ft | 2 kts | 151° |
| 2026-05-04 12:49 | 27.98641 | -82.54040 | 43 ft | 2 kts | 166° |
| 2026-05-04 12:49 | 27.98636 | -82.54039 | 43 ft | 0 kts | 171° |
| 2026-05-04 12:50 | 27.98623 | -82.54037 | 41 ft | 6 kts | 175° |
| 2026-05-04 12:51 | 27.98550 | -82.54038 | 43 ft | 15 kts | 182° |
| 2026-05-04 12:51 | 27.98483 | -82.54038 | 41 ft | 9 kts | 175° |
| 2026-05-04 12:51 | 27.98431 | -82.53990 | 41 ft | 12 kts | 123° |
| 2026-05-04 12:51 | 27.98338 | -82.53961 | 39 ft | 17 kts | 182° |
| 2026-05-04 12:52 | 27.98212 | -82.53966 | 38 ft | 16 kts | 182° |
| 2026-05-04 12:52 | 27.98090 | -82.53970 | 37 ft | 19 kts | 181° |
| 2026-05-04 12:52 | 27.97970 | -82.53974 | 34 ft | 18 kts | 181° |
| 2026-05-04 12:52 | 27.97848 | -82.53977 | 32 ft | 17 kts | 181° |
| 2026-05-04 12:53 | 27.97743 | -82.53979 | 32 ft | 12 kts | 181° |
| 2026-05-04 12:53 | 27.97725 | -82.53979 | 33 ft | 0 kts | 181° |
| 2026-05-04 12:53 | 27.97723 | -82.53978 | 33 ft | 1 kts | 166° |
| 2026-05-04 12:54 | 27.97717 | -82.53944 | 34 ft | 6 kts | 70° |
| 2026-05-04 12:54 | 27.97721 | -82.53903 | 34 ft | 5 kts | 99° |
| 2026-05-04 12:54 | 27.97718 | -82.53888 | 34 ft | 0 kts | 105° |
| 2026-05-04 12:59 | 27.97716 | -82.53880 | 34 ft | 0 kts | 107° |